sensor_id;sensor_type;location;lat;lon;timestamp;P1;durP1;ratioP1;P2;durP2;ratioP2
39104;SDS011;46464;51.154;13.812;2023-04-23T00:04:45;7.55;;;4.57;;
39104;SDS011;46464;51.154;13.812;2023-04-23T00:07:16;7.55;;;4.53;;
39104;SDS011;46464;51.154;13.812;2023-04-23T00:09:44;9.50;;;4.25;;
39104;SDS011;46464;51.154;13.812;2023-04-23T00:17:05;7.13;;;4.70;;
39104;SDS011;46464;51.154;13.812;2023-04-23T00:19:32;7.95;;;4.47;;
39104;SDS011;46464;51.154;13.812;2023-04-23T00:26:51;15.40;;;6.57;;
39104;SDS011;46464;51.154;13.812;2023-04-23T00:29:18;7.75;;;4.70;;
39104;SDS011;46464;51.154;13.812;2023-04-23T00:34:12;8.50;;;4.40;;
39104;SDS011;46464;51.154;13.812;2023-04-23T00:36:38;9.80;;;4.80;;
39104;SDS011;46464;51.154;13.812;2023-04-23T00:39:05;8.27;;;4.70;;
39104;SDS011;46464;51.154;13.812;2023-04-23T00:41:31;8.13;;;4.63;;
39104;SDS011;46464;51.154;13.812;2023-04-23T00:43:59;12.10;;;5.88;;
39104;SDS011;46464;51.154;13.812;2023-04-23T00:46:25;6.93;;;4.63;;
39104;SDS011;46464;51.154;13.812;2023-04-23T00:48:52;10.50;;;5.00;;
39104;SDS011;46464;51.154;13.812;2023-04-23T00:51:20;5.72;;;3.85;;
39104;SDS011;46464;51.154;13.812;2023-04-23T00:53:48;8.50;;;4.45;;
39104;SDS011;46464;51.154;13.812;2023-04-23T00:58:43;7.30;;;4.55;;
39104;SDS011;46464;51.154;13.812;2023-04-23T01:01:10;6.45;;;4.75;;
39104;SDS011;46464;51.154;13.812;2023-04-23T01:03:37;6.13;;;4.10;;
39104;SDS011;46464;51.154;13.812;2023-04-23T01:06:07;7.95;;;4.80;;
39104;SDS011;46464;51.154;13.812;2023-04-23T01:08:34;12.00;;;5.03;;
39104;SDS011;46464;51.154;13.812;2023-04-23T01:11:01;9.20;;;4.50;;
39104;SDS011;46464;51.154;13.812;2023-04-23T01:13:28;9.48;;;4.47;;
39104;SDS011;46464;51.154;13.812;2023-04-23T01:15:55;10.02;;;4.78;;
39104;SDS011;46464;51.154;13.812;2023-04-23T01:20:49;10.25;;;5.00;;
39104;SDS011;46464;51.154;13.812;2023-04-23T01:23:16;8.18;;;4.20;;
39104;SDS011;46464;51.154;13.812;2023-04-23T01:25:43;6.93;;;4.88;;
39104;SDS011;46464;51.154;13.812;2023-04-23T01:28:09;7.50;;;4.72;;
39104;SDS011;46464;51.154;13.812;2023-04-23T01:30:36;8.85;;;4.97;;
39104;SDS011;46464;51.154;13.812;2023-04-23T01:33:03;7.47;;;4.28;;
39104;SDS011;46464;51.154;13.812;2023-04-23T01:35:32;6.90;;;4.90;;
39104;SDS011;46464;51.154;13.812;2023-04-23T01:37:58;9.80;;;4.78;;
39104;SDS011;46464;51.154;13.812;2023-04-23T01:40:27;8.07;;;4.75;;
39104;SDS011;46464;51.154;13.812;2023-04-23T01:42:54;6.43;;;4.57;;
39104;SDS011;46464;51.154;13.812;2023-04-23T01:45:22;6.45;;;4.20;;
39104;SDS011;46464;51.154;13.812;2023-04-23T01:47:48;6.97;;;4.60;;
39104;SDS011;46464;51.154;13.812;2023-04-23T01:50:15;8.43;;;5.22;;
39104;SDS011;46464;51.154;13.812;2023-04-23T01:52:42;6.35;;;4.80;;
39104;SDS011;46464;51.154;13.812;2023-04-23T01:55:10;7.13;;;4.70;;
39104;SDS011;46464;51.154;13.812;2023-04-23T01:57:36;7.15;;;4.65;;
39104;SDS011;46464;51.154;13.812;2023-04-23T02:00:07;7.00;;;4.72;;
39104;SDS011;46464;51.154;13.812;2023-04-23T02:02:36;5.28;;;4.28;;
39104;SDS011;46464;51.154;13.812;2023-04-23T02:05:08;7.45;;;4.68;;
39104;SDS011;46464;51.154;13.812;2023-04-23T02:07:42;6.65;;;4.53;;
39104;SDS011;46464;51.154;13.812;2023-04-23T02:10:09;7.05;;;5.07;;
39104;SDS011;46464;51.154;13.812;2023-04-23T02:12:36;5.90;;;4.72;;
39104;SDS011;46464;51.154;13.812;2023-04-23T02:15:04;7.05;;;4.65;;
39104;SDS011;46464;51.154;13.812;2023-04-23T02:17:31;7.30;;;4.70;;
39104;SDS011;46464;51.154;13.812;2023-04-23T02:19:58;8.02;;;5.10;;
39104;SDS011;46464;51.154;13.812;2023-04-23T02:22:24;6.53;;;4.80;;
39104;SDS011;46464;51.154;13.812;2023-04-23T02:24:53;10.50;;;5.18;;
39104;SDS011;46464;51.154;13.812;2023-04-23T02:27:20;7.50;;;4.72;;
39104;SDS011;46464;51.154;13.812;2023-04-23T02:29:47;9.07;;;5.13;;
39104;SDS011;46464;51.154;13.812;2023-04-23T02:32:14;8.68;;;5.28;;
39104;SDS011;46464;51.154;13.812;2023-04-23T02:34:40;8.52;;;5.53;;
39104;SDS011;46464;51.154;13.812;2023-04-23T02:39:34;7.30;;;5.50;;
39104;SDS011;46464;51.154;13.812;2023-04-23T02:42:00;7.88;;;5.18;;
39104;SDS011;46464;51.154;13.812;2023-04-23T02:44:27;6.60;;;4.93;;
39104;SDS011;46464;51.154;13.812;2023-04-23T02:46:53;7.53;;;5.20;;
39104;SDS011;46464;51.154;13.812;2023-04-23T02:49:20;8.38;;;5.63;;
39104;SDS011;46464;51.154;13.812;2023-04-23T02:51:46;8.73;;;5.43;;
39104;SDS011;46464;51.154;13.812;2023-04-23T02:54:13;7.63;;;5.32;;
39104;SDS011;46464;51.154;13.812;2023-04-23T02:59:07;11.07;;;5.30;;
39104;SDS011;46464;51.154;13.812;2023-04-23T03:01:34;7.32;;;4.80;;
39104;SDS011;46464;51.154;13.812;2023-04-23T03:04:00;7.88;;;5.25;;
39104;SDS011;46464;51.154;13.812;2023-04-23T03:06:29;7.63;;;5.22;;
39104;SDS011;46464;51.154;13.812;2023-04-23T03:08:56;8.93;;;4.93;;
39104;SDS011;46464;51.154;13.812;2023-04-23T03:11:23;6.43;;;5.07;;
39104;SDS011;46464;51.154;13.812;2023-04-23T03:13:49;9.77;;;5.57;;
39104;SDS011;46464;51.154;13.812;2023-04-23T03:16:16;7.13;;;5.20;;
39104;SDS011;46464;51.154;13.812;2023-04-23T03:18:43;6.18;;;4.53;;
39104;SDS011;46464;51.154;13.812;2023-04-23T03:21:09;7.22;;;4.80;;
39104;SDS011;46464;51.154;13.812;2023-04-23T03:23:36;7.07;;;4.80;;
39104;SDS011;46464;51.154;13.812;2023-04-23T03:26:02;5.85;;;4.72;;
39104;SDS011;46464;51.154;13.812;2023-04-23T03:28:29;7.10;;;5.28;;
39104;SDS011;46464;51.154;13.812;2023-04-23T03:30:56;10.60;;;5.43;;
39104;SDS011;46464;51.154;13.812;2023-04-23T03:33:23;7.05;;;5.13;;
39104;SDS011;46464;51.154;13.812;2023-04-23T03:35:49;7.63;;;5.40;;
39104;SDS011;46464;51.154;13.812;2023-04-23T03:38:15;7.68;;;5.25;;
39104;SDS011;46464;51.154;13.812;2023-04-23T03:40:42;7.47;;;5.38;;
39104;SDS011;46464;51.154;13.812;2023-04-23T03:43:08;9.25;;;6.15;;
39104;SDS011;46464;51.154;13.812;2023-04-23T03:45:35;8.63;;;5.93;;
39104;SDS011;46464;51.154;13.812;2023-04-23T03:48:01;7.95;;;6.00;;
39104;SDS011;46464;51.154;13.812;2023-04-23T03:50:28;9.70;;;5.63;;
39104;SDS011;46464;51.154;13.812;2023-04-23T03:52:55;8.07;;;5.15;;
39104;SDS011;46464;51.154;13.812;2023-04-23T03:55:21;6.55;;;5.45;;
39104;SDS011;46464;51.154;13.812;2023-04-23T03:57:47;7.68;;;5.35;;
39104;SDS011;46464;51.154;13.812;2023-04-23T04:00:14;10.00;;;6.32;;
39104;SDS011;46464;51.154;13.812;2023-04-23T04:02:41;10.93;;;6.00;;
39104;SDS011;46464;51.154;13.812;2023-04-23T04:05:08;11.38;;;5.93;;
39104;SDS011;46464;51.154;13.812;2023-04-23T04:07:36;7.93;;;6.32;;
39104;SDS011;46464;51.154;13.812;2023-04-23T04:10:04;10.15;;;6.13;;
39104;SDS011;46464;51.154;13.812;2023-04-23T04:12:31;10.15;;;6.35;;
39104;SDS011;46464;51.154;13.812;2023-04-23T04:14:58;7.47;;;5.63;;
39104;SDS011;46464;51.154;13.812;2023-04-23T04:17:24;8.45;;;5.50;;
39104;SDS011;46464;51.154;13.812;2023-04-23T04:19:51;10.57;;;6.00;;
39104;SDS011;46464;51.154;13.812;2023-04-23T04:22:18;11.48;;;5.85;;
39104;SDS011;46464;51.154;13.812;2023-04-23T04:24:44;8.23;;;5.90;;
39104;SDS011;46464;51.154;13.812;2023-04-23T04:27:13;9.00;;;6.03;;
39104;SDS011;46464;51.154;13.812;2023-04-23T04:29:40;10.02;;;5.78;;
39104;SDS011;46464;51.154;13.812;2023-04-23T04:32:07;6.65;;;5.38;;
39104;SDS011;46464;51.154;13.812;2023-04-23T04:34:34;7.30;;;5.43;;
39104;SDS011;46464;51.154;13.812;2023-04-23T04:37:03;8.18;;;6.18;;
39104;SDS011;46464;51.154;13.812;2023-04-23T04:39:30;7.60;;;6.10;;
39104;SDS011;46464;51.154;13.812;2023-04-23T04:41:56;10.20;;;6.32;;
39104;SDS011;46464;51.154;13.812;2023-04-23T04:44:25;11.88;;;6.45;;
39104;SDS011;46464;51.154;13.812;2023-04-23T04:46:51;7.40;;;5.93;;
39104;SDS011;46464;51.154;13.812;2023-04-23T04:49:19;8.40;;;5.80;;
39104;SDS011;46464;51.154;13.812;2023-04-23T04:51:47;6.28;;;5.57;;
39104;SDS011;46464;51.154;13.812;2023-04-23T04:54:13;9.35;;;5.28;;
39104;SDS011;46464;51.154;13.812;2023-04-23T04:56:40;8.13;;;5.43;;
39104;SDS011;46464;51.154;13.812;2023-04-23T04:59:06;7.07;;;5.28;;
39104;SDS011;46464;51.154;13.812;2023-04-23T05:01:33;7.43;;;6.35;;
39104;SDS011;46464;51.154;13.812;2023-04-23T05:03:59;7.32;;;5.93;;
39104;SDS011;46464;51.154;13.812;2023-04-23T05:08:53;7.65;;;5.80;;
39104;SDS011;46464;51.154;13.812;2023-04-23T05:11:20;9.52;;;5.50;;
39104;SDS011;46464;51.154;13.812;2023-04-23T05:13:46;7.50;;;6.20;;
39104;SDS011;46464;51.154;13.812;2023-04-23T05:16:14;9.88;;;6.50;;
39104;SDS011;46464;51.154;13.812;2023-04-23T05:18:41;8.63;;;5.82;;
39104;SDS011;46464;51.154;13.812;2023-04-23T05:21:07;9.63;;;6.03;;
39104;SDS011;46464;51.154;13.812;2023-04-23T05:23:34;11.68;;;5.45;;
39104;SDS011;46464;51.154;13.812;2023-04-23T05:26:01;10.23;;;6.00;;
39104;SDS011;46464;51.154;13.812;2023-04-23T05:28:29;8.68;;;5.68;;
39104;SDS011;46464;51.154;13.812;2023-04-23T05:30:56;7.55;;;5.03;;
39104;SDS011;46464;51.154;13.812;2023-04-23T05:33:23;9.48;;;5.50;;
39104;SDS011;46464;51.154;13.812;2023-04-23T05:35:58;6.63;;;4.90;;
39104;SDS011;46464;51.154;13.812;2023-04-23T05:38:25;8.15;;;5.47;;
39104;SDS011;46464;51.154;13.812;2023-04-23T05:40:51;7.80;;;5.10;;
39104;SDS011;46464;51.154;13.812;2023-04-23T05:43:18;8.93;;;5.35;;
39104;SDS011;46464;51.154;13.812;2023-04-23T05:45:44;8.43;;;5.15;;
39104;SDS011;46464;51.154;13.812;2023-04-23T05:48:11;10.02;;;4.75;;
39104;SDS011;46464;51.154;13.812;2023-04-23T05:50:37;9.32;;;4.75;;
39104;SDS011;46464;51.154;13.812;2023-04-23T05:53:04;9.52;;;5.18;;
39104;SDS011;46464;51.154;13.812;2023-04-23T05:55:30;5.93;;;4.80;;
39104;SDS011;46464;51.154;13.812;2023-04-23T05:57:57;10.07;;;5.20;;
39104;SDS011;46464;51.154;13.812;2023-04-23T06:00:23;6.53;;;4.57;;
39104;SDS011;46464;51.154;13.812;2023-04-23T06:02:50;9.45;;;4.97;;
39104;SDS011;46464;51.154;13.812;2023-04-23T06:05:17;6.78;;;4.72;;
39104;SDS011;46464;51.154;13.812;2023-04-23T06:12:38;7.18;;;4.60;;
39104;SDS011;46464;51.154;13.812;2023-04-23T06:15:08;6.95;;;4.38;;
39104;SDS011;46464;51.154;13.812;2023-04-23T06:17:35;6.32;;;4.47;;
39104;SDS011;46464;51.154;13.812;2023-04-23T06:22:30;6.03;;;3.90;;
39104;SDS011;46464;51.154;13.812;2023-04-23T06:24:57;6.85;;;3.60;;
39104;SDS011;46464;51.154;13.812;2023-04-23T06:27:24;5.15;;;3.65;;
39104;SDS011;46464;51.154;13.812;2023-04-23T06:32:27;5.75;;;3.20;;
39104;SDS011;46464;51.154;13.812;2023-04-23T06:34:54;5.30;;;3.13;;
39104;SDS011;46464;51.154;13.812;2023-04-23T06:37:27;9.90;;;3.95;;
39104;SDS011;46464;51.154;13.812;2023-04-23T06:39:56;6.38;;;3.13;;
39104;SDS011;46464;51.154;13.812;2023-04-23T06:42:23;6.18;;;3.15;;
39104;SDS011;46464;51.154;13.812;2023-04-23T06:44:50;7.15;;;3.75;;
39104;SDS011;46464;51.154;13.812;2023-04-23T06:49:44;7.07;;;3.28;;
39104;SDS011;46464;51.154;13.812;2023-04-23T06:52:11;4.82;;;3.28;;
39104;SDS011;46464;51.154;13.812;2023-04-23T06:54:37;6.82;;;3.10;;
39104;SDS011;46464;51.154;13.812;2023-04-23T06:59:30;4.47;;;3.03;;
39104;SDS011;46464;51.154;13.812;2023-04-23T07:01:57;6.20;;;3.58;;
39104;SDS011;46464;51.154;13.812;2023-04-23T07:04:24;5.82;;;2.95;;
39104;SDS011;46464;51.154;13.812;2023-04-23T07:06:50;5.05;;;3.22;;
39104;SDS011;46464;51.154;13.812;2023-04-23T07:09:17;6.28;;;3.13;;
39104;SDS011;46464;51.154;13.812;2023-04-23T07:11:43;6.10;;;2.85;;
39104;SDS011;46464;51.154;13.812;2023-04-23T07:14:10;4.80;;;2.08;;
39104;SDS011;46464;51.154;13.812;2023-04-23T07:16:37;6.50;;;2.33;;
39104;SDS011;46464;51.154;13.812;2023-04-23T07:19:03;6.57;;;2.20;;
39104;SDS011;46464;51.154;13.812;2023-04-23T07:21:30;6.72;;;2.28;;
39104;SDS011;46464;51.154;13.812;2023-04-23T07:23:58;3.20;;;2.05;;
39104;SDS011;46464;51.154;13.812;2023-04-23T07:26:32;3.42;;;2.40;;
39104;SDS011;46464;51.154;13.812;2023-04-23T07:28:59;4.65;;;2.40;;
39104;SDS011;46464;51.154;13.812;2023-04-23T07:33:54;3.17;;;2.45;;
39104;SDS011;46464;51.154;13.812;2023-04-23T07:36:21;3.92;;;2.45;;
39104;SDS011;46464;51.154;13.812;2023-04-23T07:38:48;4.38;;;2.80;;
39104;SDS011;46464;51.154;13.812;2023-04-23T07:41:16;4.63;;;2.42;;
39104;SDS011;46464;51.154;13.812;2023-04-23T07:43:43;5.45;;;2.20;;
39104;SDS011;46464;51.154;13.812;2023-04-23T07:46:09;4.57;;;2.70;;
39104;SDS011;46464;51.154;13.812;2023-04-23T07:48:36;4.80;;;2.35;;
39104;SDS011;46464;51.154;13.812;2023-04-23T07:51:02;3.97;;;2.65;;
39104;SDS011;46464;51.154;13.812;2023-04-23T07:55:56;5.38;;;3.03;;
39104;SDS011;46464;51.154;13.812;2023-04-23T08:00:49;4.90;;;2.53;;
39104;SDS011;46464;51.154;13.812;2023-04-23T08:03:16;7.43;;;3.35;;
39104;SDS011;46464;51.154;13.812;2023-04-23T08:05:43;4.47;;;2.90;;
39104;SDS011;46464;51.154;13.812;2023-04-23T08:08:11;6.13;;;3.17;;
39104;SDS011;46464;51.154;13.812;2023-04-23T08:10:38;4.18;;;2.70;;
39104;SDS011;46464;51.154;13.812;2023-04-23T08:13:05;5.68;;;2.90;;
39104;SDS011;46464;51.154;13.812;2023-04-23T08:15:32;5.20;;;2.63;;
39104;SDS011;46464;51.154;13.812;2023-04-23T08:17:58;5.85;;;2.92;;
39104;SDS011;46464;51.154;13.812;2023-04-23T08:20:35;7.10;;;3.10;;
39104;SDS011;46464;51.154;13.812;2023-04-23T08:23:01;7.05;;;3.08;;
39104;SDS011;46464;51.154;13.812;2023-04-23T08:25:29;4.82;;;2.53;;
39104;SDS011;46464;51.154;13.812;2023-04-23T08:27:55;4.75;;;2.38;;
39104;SDS011;46464;51.154;13.812;2023-04-23T08:30:22;4.00;;;1.92;;
39104;SDS011;46464;51.154;13.812;2023-04-23T08:32:49;3.75;;;1.90;;
39104;SDS011;46464;51.154;13.812;2023-04-23T08:35:19;5.38;;;2.05;;
39104;SDS011;46464;51.154;13.812;2023-04-23T08:37:45;3.65;;;1.70;;
39104;SDS011;46464;51.154;13.812;2023-04-23T08:40:12;2.42;;;1.40;;
39104;SDS011;46464;51.154;13.812;2023-04-23T08:45:10;2.75;;;1.13;;
39104;SDS011;46464;51.154;13.812;2023-04-23T08:47:40;3.15;;;1.63;;
39104;SDS011;46464;51.154;13.812;2023-04-23T08:50:13;2.58;;;1.30;;
39104;SDS011;46464;51.154;13.812;2023-04-23T08:52:46;2.03;;;1.27;;
39104;SDS011;46464;51.154;13.812;2023-04-23T08:55:15;2.58;;;1.33;;
39104;SDS011;46464;51.154;13.812;2023-04-23T08:57:44;2.45;;;0.90;;
39104;SDS011;46464;51.154;13.812;2023-04-23T09:00:11;2.17;;;1.10;;
39104;SDS011;46464;51.154;13.812;2023-04-23T09:02:40;1.88;;;0.93;;
39104;SDS011;46464;51.154;13.812;2023-04-23T09:05:11;2.03;;;1.02;;
39104;SDS011;46464;51.154;13.812;2023-04-23T09:07:38;2.03;;;1.10;;
39104;SDS011;46464;51.154;13.812;2023-04-23T09:10:06;3.88;;;1.40;;
39104;SDS011;46464;51.154;13.812;2023-04-23T09:12:37;2.70;;;1.20;;
39104;SDS011;46464;51.154;13.812;2023-04-23T09:15:06;2.97;;;1.20;;
39104;SDS011;46464;51.154;13.812;2023-04-23T09:17:41;2.35;;;1.17;;
39104;SDS011;46464;51.154;13.812;2023-04-23T09:20:09;3.65;;;1.25;;
39104;SDS011;46464;51.154;13.812;2023-04-23T09:22:47;1.98;;;1.30;;
39104;SDS011;46464;51.154;13.812;2023-04-23T09:25:16;2.95;;;1.17;;
39104;SDS011;46464;51.154;13.812;2023-04-23T09:27:53;2.88;;;1.52;;
39104;SDS011;46464;51.154;13.812;2023-04-23T09:30:24;2.72;;;1.65;;
39104;SDS011;46464;51.154;13.812;2023-04-23T09:32:52;2.95;;;1.60;;
39104;SDS011;46464;51.154;13.812;2023-04-23T09:35:20;1.60;;;1.00;;
39104;SDS011;46464;51.154;13.812;2023-04-23T09:37:47;2.45;;;1.40;;
39104;SDS011;46464;51.154;13.812;2023-04-23T09:40:17;2.50;;;1.77;;
39104;SDS011;46464;51.154;13.812;2023-04-23T09:42:48;2.75;;;1.50;;
39104;SDS011;46464;51.154;13.812;2023-04-23T09:45:19;1.75;;;1.30;;
39104;SDS011;46464;51.154;13.812;2023-04-23T10:31:08;0.93;;;0.57;;
39104;SDS011;46464;51.154;13.812;2023-04-23T10:33:36;1.55;;;0.73;;
39104;SDS011;46464;51.154;13.812;2023-04-23T10:36:21;1.27;;;0.80;;
39104;SDS011;46464;51.154;13.812;2023-04-23T10:38:50;2.08;;;0.80;;
39104;SDS011;46464;51.154;13.812;2023-04-23T10:41:24;2.53;;;1.08;;
39104;SDS011;46464;51.154;13.812;2023-04-23T10:46:29;1.55;;;0.80;;
39104;SDS011;46464;51.154;13.812;2023-04-23T10:49:07;2.67;;;0.90;;
39104;SDS011;46464;51.154;13.812;2023-04-23T10:51:39;1.80;;;0.77;;
39104;SDS011;46464;51.154;13.812;2023-04-23T10:54:18;1.35;;;0.70;;
39104;SDS011;46464;51.154;13.812;2023-04-23T10:56:45;1.60;;;0.77;;
39104;SDS011;46464;51.154;13.812;2023-04-23T10:59:24;2.05;;;0.80;;
39104;SDS011;46464;51.154;13.812;2023-04-23T11:01:50;1.95;;;0.80;;
39104;SDS011;46464;51.154;13.812;2023-04-23T11:04:24;1.52;;;0.73;;
39104;SDS011;46464;51.154;13.812;2023-04-23T11:06:57;1.75;;;0.82;;
39104;SDS011;46464;51.154;13.812;2023-04-23T11:12:29;2.33;;;0.90;;
39104;SDS011;46464;51.154;13.812;2023-04-23T11:15:08;2.15;;;0.90;;
39104;SDS011;46464;51.154;13.812;2023-04-23T11:22:35;1.48;;;0.90;;
39104;SDS011;46464;51.154;13.812;2023-04-23T11:25:13;1.45;;;0.88;;
39104;SDS011;46464;51.154;13.812;2023-04-23T11:27:43;1.50;;;0.90;;
39104;SDS011;46464;51.154;13.812;2023-04-23T11:30:11;1.67;;;0.80;;
39104;SDS011;46464;51.154;13.812;2023-04-23T11:32:40;1.60;;;0.95;;
39104;SDS011;46464;51.154;13.812;2023-04-23T11:35:07;2.53;;;0.80;;
39104;SDS011;46464;51.154;13.812;2023-04-23T11:37:39;2.15;;;0.90;;
39104;SDS011;46464;51.154;13.812;2023-04-23T11:40:09;1.42;;;0.70;;
39104;SDS011;46464;51.154;13.812;2023-04-23T11:42:42;2.72;;;0.80;;
39104;SDS011;46464;51.154;13.812;2023-04-23T11:47:42;4.80;;;1.60;;
39104;SDS011;46464;51.154;13.812;2023-04-23T11:50:16;1.27;;;0.70;;
39104;SDS011;46464;51.154;13.812;2023-04-23T11:52:44;2.15;;;1.00;;
39104;SDS011;46464;51.154;13.812;2023-04-23T11:57:41;1.23;;;0.90;;
39104;SDS011;46464;51.154;13.812;2023-04-23T12:00:18;1.23;;;0.60;;
39104;SDS011;46464;51.154;13.812;2023-04-23T12:05:27;1.02;;;0.70;;
39104;SDS011;46464;51.154;13.812;2023-04-23T12:08:04;0.60;;;0.50;;
39104;SDS011;46464;51.154;13.812;2023-04-23T12:10:50;1.27;;;0.70;;
39104;SDS011;46464;51.154;13.812;2023-04-23T12:13:20;2.78;;;0.80;;
39104;SDS011;46464;51.154;13.812;2023-04-23T12:15:59;1.70;;;1.00;;
39104;SDS011;46464;51.154;13.812;2023-04-23T12:18:27;2.47;;;1.40;;
39104;SDS011;46464;51.154;13.812;2023-04-23T12:20:54;1.33;;;0.80;;
39104;SDS011;46464;51.154;13.812;2023-04-23T12:23:24;2.88;;;0.93;;
39104;SDS011;46464;51.154;13.812;2023-04-23T12:25:54;2.55;;;1.52;;
39104;SDS011;46464;51.154;13.812;2023-04-23T12:28:21;1.80;;;1.02;;
39104;SDS011;46464;51.154;13.812;2023-04-23T12:30:49;1.70;;;0.88;;
39104;SDS011;46464;51.154;13.812;2023-04-23T12:33:16;1.65;;;0.82;;
39104;SDS011;46464;51.154;13.812;2023-04-23T12:35:44;2.88;;;1.40;;
39104;SDS011;46464;51.154;13.812;2023-04-23T12:38:23;1.80;;;0.90;;
39104;SDS011;46464;51.154;13.812;2023-04-23T12:40:53;3.80;;;2.30;;
39104;SDS011;46464;51.154;13.812;2023-04-23T12:43:21;1.70;;;0.90;;
39104;SDS011;46464;51.154;13.812;2023-04-23T12:45:48;1.40;;;1.00;;
39104;SDS011;46464;51.154;13.812;2023-04-23T12:53:07;1.17;;;0.80;;
39104;SDS011;46464;51.154;13.812;2023-04-23T12:55:34;1.88;;;0.75;;
39104;SDS011;46464;51.154;13.812;2023-04-23T12:58:05;2.25;;;1.00;;
39104;SDS011;46464;51.154;13.812;2023-04-23T13:00:32;1.65;;;0.73;;
39104;SDS011;46464;51.154;13.812;2023-04-23T13:02:58;2.75;;;0.80;;
39104;SDS011;46464;51.154;13.812;2023-04-23T13:05:25;1.00;;;0.68;;
39104;SDS011;46464;51.154;13.812;2023-04-23T13:07:51;2.50;;;0.90;;
39104;SDS011;46464;51.154;13.812;2023-04-23T13:15:11;1.70;;;1.10;;
39104;SDS011;46464;51.154;13.812;2023-04-23T13:17:38;1.80;;;0.93;;
39104;SDS011;46464;51.154;13.812;2023-04-23T13:20:08;2.45;;;0.80;;
39104;SDS011;46464;51.154;13.812;2023-04-23T13:22:34;1.85;;;1.02;;
39104;SDS011;46464;51.154;13.812;2023-04-23T13:25:01;0.88;;;0.60;;
39104;SDS011;46464;51.154;13.812;2023-04-23T13:27:29;1.20;;;0.80;;
39104;SDS011;46464;51.154;13.812;2023-04-23T13:30:00;1.40;;;0.75;;
39104;SDS011;46464;51.154;13.812;2023-04-23T13:32:26;1.30;;;0.80;;
39104;SDS011;46464;51.154;13.812;2023-04-23T13:34:57;0.82;;;0.60;;
39104;SDS011;46464;51.154;13.812;2023-04-23T13:37:30;1.90;;;0.70;;
39104;SDS011;46464;51.154;13.812;2023-04-23T13:39:57;0.98;;;0.63;;
39104;SDS011;46464;51.154;13.812;2023-04-23T13:42:24;1.50;;;0.70;;
39104;SDS011;46464;51.154;13.812;2023-04-23T13:44:50;0.70;;;0.50;;
39104;SDS011;46464;51.154;13.812;2023-04-23T13:47:17;2.53;;;1.25;;
39104;SDS011;46464;51.154;13.812;2023-04-23T13:49:44;0.77;;;0.60;;
39104;SDS011;46464;51.154;13.812;2023-04-23T13:52:11;1.58;;;0.77;;
39104;SDS011;46464;51.154;13.812;2023-04-23T13:54:37;1.02;;;0.55;;
39104;SDS011;46464;51.154;13.812;2023-04-23T13:57:05;1.00;;;0.70;;
39104;SDS011;46464;51.154;13.812;2023-04-23T14:01:58;2.05;;;1.08;;
39104;SDS011;46464;51.154;13.812;2023-04-23T14:04:24;1.17;;;0.70;;
39104;SDS011;46464;51.154;13.812;2023-04-23T14:06:52;1.65;;;1.10;;
39104;SDS011;46464;51.154;13.812;2023-04-23T14:09:19;1.20;;;0.70;;
39104;SDS011;46464;51.154;13.812;2023-04-23T14:11:48;3.72;;;0.70;;
39104;SDS011;46464;51.154;13.812;2023-04-23T14:16:41;1.20;;;0.60;;
39104;SDS011;46464;51.154;13.812;2023-04-23T14:19:08;1.35;;;0.77;;
39104;SDS011;46464;51.154;13.812;2023-04-23T14:21:36;1.55;;;0.80;;
39104;SDS011;46464;51.154;13.812;2023-04-23T14:26:49;2.55;;;0.85;;
39104;SDS011;46464;51.154;13.812;2023-04-23T14:32:06;2.17;;;0.77;;
39104;SDS011;46464;51.154;13.812;2023-04-23T14:34:35;1.20;;;0.77;;
39104;SDS011;46464;51.154;13.812;2023-04-23T14:37:02;3.92;;;0.82;;
39104;SDS011;46464;51.154;13.812;2023-04-23T14:39:29;1.38;;;1.02;;
39104;SDS011;46464;51.154;13.812;2023-04-23T14:41:55;1.20;;;0.70;;
39104;SDS011;46464;51.154;13.812;2023-04-23T14:44:22;0.80;;;0.60;;
39104;SDS011;46464;51.154;13.812;2023-04-23T14:46:49;1.73;;;0.70;;
39104;SDS011;46464;51.154;13.812;2023-04-23T14:49:16;0.90;;;0.43;;
39104;SDS011;46464;51.154;13.812;2023-04-23T14:51:43;1.67;;;0.70;;
39104;SDS011;46464;51.154;13.812;2023-04-23T14:54:09;1.48;;;0.95;;
39104;SDS011;46464;51.154;13.812;2023-04-23T14:56:36;2.08;;;1.00;;
39104;SDS011;46464;51.154;13.812;2023-04-23T14:59:03;1.55;;;0.93;;
39104;SDS011;46464;51.154;13.812;2023-04-23T15:01:30;1.98;;;1.00;;
39104;SDS011;46464;51.154;13.812;2023-04-23T15:03:56;2.15;;;1.17;;
39104;SDS011;46464;51.154;13.812;2023-04-23T15:08:49;1.88;;;0.90;;
39104;SDS011;46464;51.154;13.812;2023-04-23T15:11:16;1.88;;;0.93;;
39104;SDS011;46464;51.154;13.812;2023-04-23T15:16:48;2.03;;;0.70;;
39104;SDS011;46464;51.154;13.812;2023-04-23T15:19:16;1.92;;;0.90;;
39104;SDS011;46464;51.154;13.812;2023-04-23T15:21:44;2.05;;;0.70;;
39104;SDS011;46464;51.154;13.812;2023-04-23T15:24:10;1.55;;;0.73;;
39104;SDS011;46464;51.154;13.812;2023-04-23T15:26:37;1.17;;;0.75;;
39104;SDS011;46464;51.154;13.812;2023-04-23T15:29:06;3.20;;;1.50;;
39104;SDS011;46464;51.154;13.812;2023-04-23T15:31:36;2.80;;;1.80;;
39104;SDS011;46464;51.154;13.812;2023-04-23T15:34:03;3.72;;;1.92;;
39104;SDS011;46464;51.154;13.812;2023-04-23T15:36:32;2.40;;;1.80;;
39104;SDS011;46464;51.154;13.812;2023-04-23T15:39:00;3.35;;;1.90;;
39104;SDS011;46464;51.154;13.812;2023-04-23T15:41:27;2.97;;;2.15;;
39104;SDS011;46464;51.154;13.812;2023-04-23T15:46:21;4.45;;;1.92;;
39104;SDS011;46464;51.154;13.812;2023-04-23T15:48:51;5.82;;;2.20;;
39104;SDS011;46464;51.154;13.812;2023-04-23T15:51:17;3.35;;;1.88;;
39104;SDS011;46464;51.154;13.812;2023-04-23T15:53:44;3.08;;;2.30;;
39104;SDS011;46464;51.154;13.812;2023-04-23T15:56:10;3.55;;;2.40;;
39104;SDS011;46464;51.154;13.812;2023-04-23T15:58:37;6.45;;;2.90;;
39104;SDS011;46464;51.154;13.812;2023-04-23T16:01:06;3.83;;;2.90;;
39104;SDS011;46464;51.154;13.812;2023-04-23T16:03:34;3.30;;;2.80;;
39104;SDS011;46464;51.154;13.812;2023-04-23T16:06:01;4.13;;;2.83;;
39104;SDS011;46464;51.154;13.812;2023-04-23T16:08:30;4.28;;;2.88;;
39104;SDS011;46464;51.154;13.812;2023-04-23T16:10:58;4.40;;;3.22;;
39104;SDS011;46464;51.154;13.812;2023-04-23T16:13:25;4.00;;;3.03;;
39104;SDS011;46464;51.154;13.812;2023-04-23T16:15:54;3.60;;;2.85;;
39104;SDS011;46464;51.154;13.812;2023-04-23T16:23:13;3.50;;;2.83;;
39104;SDS011;46464;51.154;13.812;2023-04-23T16:25:40;4.57;;;3.33;;
39104;SDS011;46464;51.154;13.812;2023-04-23T16:28:06;4.75;;;3.17;;
39104;SDS011;46464;51.154;13.812;2023-04-23T16:30:33;4.57;;;3.00;;
39104;SDS011;46464;51.154;13.812;2023-04-23T16:33:00;3.53;;;2.85;;
39104;SDS011;46464;51.154;13.812;2023-04-23T16:35:26;3.55;;;2.40;;
39104;SDS011;46464;51.154;13.812;2023-04-23T16:37:53;3.45;;;2.42;;
39104;SDS011;46464;51.154;13.812;2023-04-23T16:40:19;2.72;;;2.10;;
39104;SDS011;46464;51.154;13.812;2023-04-23T16:42:46;3.00;;;2.22;;
39104;SDS011;46464;51.154;13.812;2023-04-23T16:45:14;3.42;;;2.60;;
39104;SDS011;46464;51.154;13.812;2023-04-23T16:47:40;4.22;;;2.55;;
39104;SDS011;46464;51.154;13.812;2023-04-23T16:50:08;3.40;;;2.55;;
39104;SDS011;46464;51.154;13.812;2023-04-23T16:52:35;4.47;;;2.58;;
39104;SDS011;46464;51.154;13.812;2023-04-23T16:57:29;3.78;;;2.60;;
39104;SDS011;46464;51.154;13.812;2023-04-23T16:59:55;4.00;;;2.90;;
39104;SDS011;46464;51.154;13.812;2023-04-23T17:02:22;3.83;;;2.60;;
39104;SDS011;46464;51.154;13.812;2023-04-23T17:04:48;3.33;;;2.28;;
39104;SDS011;46464;51.154;13.812;2023-04-23T17:07:15;4.38;;;2.53;;